Time;durP1;ratioP1;P1;durP2;ratioP2;P2;SDS_P1;SDS_P2;PMS_P1;PMS_P2;Temp;Humidity;BMP_temperature;BMP_pressure;BME280_temperature;BME280_humidity;BME280_pressure;Samples;Min_cycle;Max_cycle;Signal;HPM_P1;HPM_P2
2021/01/10 00:01:09;;;;;;;32.65;22.05;;;;;;;1.56;82.65;99887.13;1708363;81;21467;-73
2021/01/10 00:03:36;;;;;;;35.90;25.60;;;;;;;1.54;82.53;99892.61;1780317;80;21196;-75
2021/01/10 00:06:05;;;;;;;31.87;19.50;;;;;;;1.52;82.50;99894.64;1788580;80;21031;-72
2021/01/10 00:08:33;;;;;;;40.15;23.85;;;;;;;1.51;82.57;99891.67;1771215;79;21029;-72
2021/01/10 00:11:01;;;;;;;29.25;20.17;;;;;;;1.51;82.67;99900.13;1758423;81;21663;-73
2021/01/10 00:13:30;;;;;;;32.73;21.42;;;;;;;1.48;82.66;99902.66;1758235;81;21171;-73
2021/01/10 00:15:58;;;;;;;27.52;17.27;;;;;;;1.46;82.71;99903.83;1731279;81;21645;-72
2021/01/10 00:18:25;;;;;;;31.90;21.30;;;;;;;1.46;82.80;99898.03;1766547;80;21041;-73
2021/01/10 00:20:53;;;;;;;31.70;21.02;;;;;;;1.47;82.89;99901.50;1758601;81;21606;-74
2021/01/10 00:23:20;;;;;;;29.07;22.15;;;;;;;1.44;82.94;99896.06;1771225;80;21555;-74
2021/01/10 00:25:49;;;;;;;34.45;19.90;;;;;;;1.46;83.04;99909.95;1785820;80;22921;-71
2021/01/10 00:28:16;;;;;;;32.70;22.10;;;;;;;1.47;83.18;99904.98;1788830;80;21173;-71
2021/01/10 00:30:45;;;;;;;32.20;23.18;;;;;;;1.50;83.17;99908.57;1789708;79;21513;-71
2021/01/10 00:33:12;;;;;;;33.45;22.73;;;;;;;1.50;83.12;99911.72;1772918;79;21133;-69
2021/01/10 00:35:40;;;;;;;34.75;21.82;;;;;;;1.52;83.03;99913.70;1773351;80;21184;-74
2021/01/10 00:38:08;;;;;;;33.58;21.27;;;;;;;1.51;82.87;99908.90;1763397;80;21201;-73
2021/01/10 00:40:35;;;;;;;31.90;19.98;;;;;;;1.53;82.77;99912.70;1789546;79;21114;-72
2021/01/10 00:43:04;;;;;;;29.18;18.77;;;;;;;1.53;82.76;99912.20;1767916;80;21562;-75
2021/01/10 00:45:32;;;;;;;34.65;22.50;;;;;;;1.54;82.62;99910.34;1758318;80;21016;-72
2021/01/10 00:47:59;;;;;;;26.30;19.25;;;;;;;1.55;82.54;99904.03;1710640;81;21130;-72
2021/01/10 00:50:29;;;;;;;33.15;22.17;;;;;;;1.57;82.45;99900.71;1756511;81;22093;-73
2021/01/10 00:52:57;;;;;;;28.38;19.65;;;;;;;1.57;82.31;99908.66;1764122;78;21010;-72
2021/01/10 00:55:25;;;;;;;34.25;22.10;;;;;;;1.56;82.01;99917.61;1801497;78;21050;-72
2021/01/10 00:57:53;;;;;;;29.05;19.07;;;;;;;1.54;81.98;99903.72;1778149;78;21127;-72
2021/01/10 01:00:24;;;;;;;29.00;18.42;;;;;;;1.54;81.99;99919.61;1792690;78;21023;-69
2021/01/10 01:02:52;;;;;;;35.13;23.15;;;;;;;1.53;81.87;99918.00;1814580;78;21476;-70
2021/01/10 01:05:22;;;;;;;30.77;21.10;;;;;;;1.51;81.89;99918.67;1776725;80;21158;-69
2021/01/10 01:07:50;;;;;;;31.37;21.30;;;;;;;1.50;81.95;99914.38;1782375;78;21101;-70
2021/01/10 01:10:19;;;;;;;29.70;19.23;;;;;;;1.51;81.88;99912.05;1801369;78;21190;-72
2021/01/10 01:12:47;;;;;;;29.67;19.92;;;;;;;1.51;81.95;99923.98;1777352;78;21166;-74
2021/01/10 01:15:14;;;;;;;32.65;21.60;;;;;;;1.49;81.86;99912.22;1776786;80;21271;-73
2021/01/10 01:17:42;;;;;;;30.95;20.50;;;;;;;1.51;81.98;99913.38;1784486;78;21623;-68
2021/01/10 01:20:11;;;;;;;33.33;20.32;;;;;;;1.52;81.92;99897.80;1808647;78;21119;-73
2021/01/10 01:22:40;;;;;;;37.20;22.15;;;;;;;1.52;81.92;99911.88;1814714;78;21654;-69
2021/01/10 01:25:09;;;;;;;35.03;21.02;;;;;;;1.51;81.77;99918.67;1779281;80;21169;-84
2021/01/10 01:27:36;;;;;;;31.12;21.93;;;;;;;1.51;81.85;99912.88;1789126;78;21378;-72
2021/01/10 01:30:05;;;;;;;31.30;22.05;;;;;;;1.52;81.82;99917.67;1819331;78;21145;-73
2021/01/10 01:32:36;;;;;;;38.23;23.80;;;;;;;1.50;81.71;99919.67;1795647;77;21145;-74
2021/01/10 01:35:05;;;;;;;29.45;17.75;;;;;;;1.49;81.78;99916.70;1779284;80;21142;-73
2021/01/10 01:37:35;;;;;;;29.90;20.02;;;;;;;1.49;81.81;99922.83;1803942;78;21137;-71
2021/01/10 01:40:08;;;;;;;26.93;18.50;;;;;;;1.49;81.79;99925.98;1819938;78;21202;-72
2021/01/10 01:42:36;;;;;;;34.08;22.37;;;;;;;1.50;81.83;99920.50;1818828;78;21046;-69
2021/01/10 01:45:07;;;;;;;29.57;19.42;;;;;;;1.50;81.81;99911.72;1817405;78;21013;-70
2021/01/10 01:47:34;;;;;;;35.20;22.22;;;;;;;1.50;81.80;99917.84;1819902;78;21145;-70
2021/01/10 01:50:05;;;;;;;31.95;21.02;;;;;;;1.52;81.79;99910.55;1788976;78;21114;-71
2021/01/10 01:52:33;;;;;;;39.83;23.67;;;;;;;1.55;81.83;99916.79;1818497;78;21419;-72
2021/01/10 01:55:05;;;;;;;28.00;18.85;;;;;;;1.57;81.79;99922.73;1805827;77;21525;-72
2021/01/10 01:57:32;;;;;;;32.40;22.40;;;;;;;1.57;81.64;99917.44;1806035;78;21141;-73
2021/01/10 02:00:01;;;;;;;31.50;20.77;;;;;;;1.57;81.51;99911.31;1816901;78;21539;-72
2021/01/10 02:02:29;;;;;;;30.48;22.90;;;;;;;1.55;81.39;99937.17;1778569;78;21020;-72
2021/01/10 02:05:07;;;;;;;32.17;20.30;;;;;;;1.54;81.37;99920.44;1814593;78;21385;-71
2021/01/10 02:07:42;;;;;;;31.17;19.67;;;;;;;1.53;81.39;99923.30;1814331;78;21161;-72
2021/01/10 02:10:12;;;;;;;27.25;16.90;;;;;;;1.51;81.50;99930.60;1784776;78;21578;-72
2021/01/10 02:12:49;;;;;;;32.98;20.43;;;;;;;1.49;81.52;99921.50;1792633;78;21082;-73
2021/01/10 02:15:20;;;;;;;33.85;21.40;;;;;;;1.51;81.55;99920.00;1820014;78;21132;-72
2021/01/10 02:17:50;;;;;;;34.38;21.27;;;;;;;1.51;81.65;99930.60;1820410;78;22240;-72
2021/01/10 02:20:33;;;;;;;29.80;21.93;;;;;;;1.53;81.59;99928.60;1820177;78;21623;-72
2021/01/10 02:23:26;;;;;;;28.02;18.90;;;;;;;1.53;81.58;99930.75;1782131;78;21614;-72
2021/01/10 02:25:54;;;;;;;33.73;20.27;;;;;;;1.54;81.52;99946.13;1780609;80;20976;-72
2021/01/10 02:28:22;;;;;;;33.98;23.25;;;;;;;1.54;81.46;99928.39;1779775;80;21615;-71
2021/01/10 02:30:51;;;;;;;31.23;21.20;;;;;;;1.55;81.45;99931.87;1781572;78;21546;-73
2021/01/10 02:33:44;;;;;;;33.38;21.45;;;;;;;1.56;81.34;99922.91;1815035;78;21196;-71
2021/01/10 02:36:16;;;;;;;;;;;;;;;1.59;81.36;99931.81;1820257;77;21000;-72
2021/01/10 02:38:50;;;;;;;34.88;23.45;;;;;;;1.61;81.15;99931.95;1779437;78;20265;-73
2021/01/10 02:41:45;;;;;;;36.58;23.25;;;;;;;1.58;81.03;99933.64;1788008;78;20975;-72
2021/01/10 02:44:33;;;;;;;34.35;22.90;;;;;;;1.57;81.07;99932.52;1820178;78;21595;-72
2021/01/10 02:47:00;;;;;;;34.38;19.90;;;;;;;1.58;81.00;99934.96;1819802;78;20991;-70
2021/01/10 02:49:28;;;;;;;36.77;22.35;;;;;;;1.57;80.81;99941.30;1820150;78;21136;-71
2021/01/10 02:51:55;;;;;;;29.72;17.57;;;;;;;1.58;80.84;99930.19;1798824;78;21155;-71
2021/01/10 02:54:23;;;;;;;43.23;24.10;;;;;;;1.61;80.86;99927.98;1784156;78;21185;-77
2021/01/10 02:57:09;;;;;;;27.65;18.62;;;;;;;1.63;80.81;99919.32;1828953;78;21381;-71
2021/01/10 02:59:39;;;;;;;30.80;19.10;;;;;;;1.65;80.66;99930.57;1828588;77;20998;-72
2021/01/10 03:02:06;;;;;;;35.85;21.75;;;;;;;1.65;80.62;99921.30;1828480;78;21546;-71
2021/01/10 03:04:34;;;;;;;30.92;17.52;;;;;;;1.65;80.67;99926.59;1808388;78;21067;-72
2021/01/10 03:07:02;;;;;;;31.02;22.95;;;;;;;1.64;80.66;99927.59;1796945;79;21118;-74
2021/01/10 03:09:30;;;;;;;24.52;17.30;;;;;;;1.65;80.73;99918.64;1770970;79;21884;-71
2021/01/10 03:12:14;;;;;;;31.95;21.00;;;;;;;1.65;80.65;99927.92;1817124;78;22366;-71
2021/01/10 03:14:44;;;;;;;33.02;18.90;;;;;;;1.61;80.66;99937.27;1818001;78;21122;-72
2021/01/10 03:17:43;;;;;;;34.27;21.50;;;;;;;1.59;80.74;99937.11;1796512;79;21142;-72
2021/01/10 03:20:16;;;;;;;31.12;21.20;;;;;;;1.58;80.90;99924.89;1796737;78;21152;-71
2021/01/10 03:22:45;;;;;;;36.30;21.68;;;;;;;1.55;81.05;99938.49;1822066;78;21383;-73
2021/01/10 03:25:22;;;;;;;39.95;24.50;;;;;;;1.56;81.16;99927.72;1829098;78;21039;-72
2021/01/10 03:27:50;;;;;;;38.38;22.17;;;;;;;1.54;81.26;99937.67;1829108;78;21117;-71
2021/01/10 03:30:19;;;;;;;34.15;22.55;;;;;;;1.52;81.38;99941.02;1828669;78;21105;-71
2021/01/10 03:32:47;;;;;;;31.87;20.30;;;;;;;1.52;81.48;99926.95;1810687;77;21109;-74
2021/01/10 03:35:15;;;;;;;31.93;22.07;;;;;;;1.53;81.56;99932.58;1828718;78;22227;-73
2021/01/10 03:37:45;;;;;;;31.70;18.98;;;;;;;1.52;81.63;99934.91;1829188;78;21590;-73
2021/01/10 03:40:13;;;;;;;32.13;21.15;;;;;;;1.52;81.62;99932.25;1829249;78;21133;-73
2021/01/10 03:42:41;;;;;;;33.38;22.67;;;;;;;1.51;81.71;99934.58;1799594;78;21544;-73
2021/01/10 03:45:10;;;;;;;37.67;20.57;;;;;;;1.49;81.83;99930.78;1796623;79;21145;-72
2021/01/10 03:47:38;;;;;;;38.38;23.70;;;;;;;1.48;81.93;99930.98;1796696;79;22123;-74
2021/01/10 03:50:08;;;;;;;33.78;22.02;;;;;;;1.47;82.03;99928.84;1797544;78;21520;-73
2021/01/10 03:52:35;;;;;;;34.20;24.07;;;;;;;1.48;82.12;99930.48;1825636;78;21105;-72
2021/01/10 03:55:06;;;;;;;34.20;22.22;;;;;;;1.51;82.17;99930.10;1807259;78;21127;-72
2021/01/10 03:57:38;;;;;;;34.67;20.92;;;;;;;1.51;82.22;99939.87;1777019;80;21131;-73
2021/01/10 04:00:09;;;;;;;31.97;20.68;;;;;;;1.49;82.28;99933.42;1777081;80;21363;-72
2021/01/10 04:02:38;;;;;;;34.78;20.80;;;;;;;1.49;82.34;99938.73;1814036;78;21050;-73
2021/01/10 04:05:08;;;;;;;37.20;25.70;;;;;;;1.50;82.47;99936.41;1820286;78;21026;-73
2021/01/10 04:07:36;;;;;;;38.30;24.02;;;;;;;1.50;82.51;99940.37;1820302;78;21574;-72
2021/01/10 04:10:06;;;;;;;39.83;25.80;;;;;;;1.53;82.59;99935.22;1820021;78;21137;-71
2021/01/10 04:12:33;;;;;;;37.30;23.25;;;;;;;1.54;82.59;99940.82;1792415;77;22258;-72
2021/01/10 04:15:01;;;;;;;35.50;21.40;;;;;;;1.57;82.63;99944.45;1787862;80;21036;-72
2021/01/10 04:17:29;;;;;;;38.55;23.22;;;;;;;1.58;82.64;99944.23;1782161;78;21161;-72
2021/01/10 04:19:58;;;;;;;36.53;22.82;;;;;;;1.61;82.66;99944.39;1777186;78;21183;-72
2021/01/10 04:22:26;;;;;;;35.25;23.20;;;;;;;1.62;82.71;99948.19;1808419;78;21035;-72
2021/01/10 04:24:53;;;;;;;43.78;25.02;;;;;;;1.62;82.70;99948.19;1820281;78;21377;-73
2021/01/10 04:27:21;;;;;;;48.65;29.20;;;;;;;1.60;82.78;99948.86;1820174;78;21035;-72
2021/01/10 04:29:51;;;;;;;37.53;23.25;;;;;;;1.60;82.90;99949.36;1819811;78;21242;-73
2021/01/10 04:32:19;;;;;;;33.90;20.25;;;;;;;1.61;82.92;99956.31;1792317;78;21222;-72
2021/01/10 04:34:48;;;;;;;30.88;19.55;;;;;;;1.61;82.94;99954.49;1821007;78;21145;-72
2021/01/10 04:37:16;;;;;;;40.45;24.25;;;;;;;1.62;82.95;99956.14;1820433;78;21195;-72
2021/01/10 04:39:44;;;;;;;31.37;19.37;;;;;;;1.62;82.92;99957.47;1810445;77;21114;-73
2021/01/10 04:42:14;;;;;;;39.30;21.97;;;;;;;1.62;82.92;99960.11;1785321;78;21115;-73
2021/01/10 04:44:42;;;;;;;35.48;21.60;;;;;;;1.60;82.92;99962.62;1776858;80;21608;-73
2021/01/10 04:47:09;;;;;;;33.30;21.62;;;;;;;1.59;83.02;99970.25;1746673;80;21024;-73
2021/01/10 04:49:39;;;;;;;38.90;24.63;;;;;;;1.59;83.09;99960.97;1776911;80;22193;-72
2021/01/10 04:52:07;;;;;;;26.17;17.48;;;;;;;1.59;83.16;99972.39;1781687;78;21127;-74
2021/01/10 04:54:41;;;;;;;35.92;23.25;;;;;;;1.60;83.23;99971.39;1796135;78;21081;-71
2021/01/10 04:57:12;;;;;;;37.90;22.10;;;;;;;1.60;83.18;99985.97;1789542;80;21019;-75
2021/01/10 04:59:43;;;;;;;36.40;22.00;;;;;;;1.60;83.26;99967.92;1789611;80;21146;-75
2021/01/10 05:02:11;;;;;;;35.43;23.73;;;;;;;1.60;83.28;99979.34;1787460;80;22278;-74
2021/01/10 05:04:40;;;;;;;35.38;22.20;;;;;;;1.60;83.25;99984.65;1763345;80;21131;-73
2021/01/10 05:07:07;;;;;;;36.08;21.62;;;;;;;1.60;83.23;99990.45;1707222;81;21195;-73
2021/01/10 05:09:36;;;;;;;35.88;24.98;;;;;;;1.60;83.28;99995.25;1734951;82;20955;-72
2021/01/10 05:12:05;;;;;;;36.53;22.60;;;;;;;1.62;83.27;99985.80;1734928;82;21169;-73
2021/01/10 05:14:32;;;;;;;35.95;23.00;;;;;;;1.63;83.23;99998.84;1722389;83;21372;-72
2021/01/10 05:17:00;;;;;;;35.10;22.85;;;;;;;1.62;83.11;100003.86;1728956;82;21153;-73
2021/01/10 05:19:31;;;;;;;37.60;23.65;;;;;;;1.62;83.10;100006.50;1734015;82;21760;-72
2021/01/10 05:24:37;;;;;;;37.17;22.93;;;;;;;1.69;83.12;100001.27;1889166;76;22703;-72
2021/01/10 05:27:05;;;;;;;34.00;21.37;;;;;;;1.68;83.05;100000.94;1860212;77;21021;-72
2021/01/10 05:29:33;;;;;;;34.15;21.93;;;;;;;1.72;82.99;100015.00;1822264;78;21378;-72
2021/01/10 05:32:04;;;;;;;32.15;19.23;;;;;;;1.74;82.79;100010.31;1820555;78;20959;-72
2021/01/10 05:34:32;;;;;;;36.90;22.90;;;;;;;1.74;82.65;100012.14;1815849;78;20988;-71
2021/01/10 05:37:14;;;;;;;32.73;20.92;;;;;;;1.72;82.66;100015.00;1759896;80;21032;-72
2021/01/10 05:39:45;;;;;;;34.18;21.97;;;;;;;1.70;82.69;100011.70;1819044;78;20995;-72
2021/01/10 05:42:13;;;;;;;30.57;19.15;;;;;;;1.69;82.68;100024.63;1776793;80;21213;-72
2021/01/10 05:44:47;;;;;;;32.50;20.77;;;;;;;1.69;82.74;100018.00;1789234;80;21516;-72
2021/01/10 05:47:16;;;;;;;;;;;;;;;1.72;82.73;100015.00;1775586;80;20963;-73
2021/01/10 05:49:54;;;;;;;30.08;18.45;;;;;;;1.73;82.69;100021.92;1790075;80;20273;-73
2021/01/10 05:52:22;;;;;;;36.77;23.57;;;;;;;1.70;82.67;100030.26;1808541;77;21171;-72
2021/01/10 05:54:58;;;;;;;28.77;17.73;;;;;;;1.67;82.61;100024.01;1807042;77;22612;-72
2021/01/10 05:57:28;;;;;;;34.40;20.25;;;;;;;1.65;82.71;100026.51;1805042;79;21058;-74
2021/01/10 05:59:56;;;;;;;32.13;20.68;;;;;;;1.64;82.75;100031.48;1788098;80;21167;-74
2021/01/10 06:02:31;;;;;;;36.77;22.13;;;;;;;1.58;82.94;100029.06;1785357;79;21129;-72
2021/01/10 06:05:16;;;;;;;32.28;19.52;;;;;;;1.61;83.01;100034.52;1787099;80;21576;-72
2021/01/10 06:07:47;;;;;;;36.13;22.40;;;;;;;1.60;83.04;100033.69;1790284;79;21419;-73
2021/01/10 06:10:26;;;;;;;30.10;17.32;;;;;;;1.62;83.07;100038.31;1783830;80;21014;-72
2021/01/10 06:13:04;;;;;;;32.45;21.15;;;;;;;1.64;82.99;100040.27;1785114;79;21113;-72
2021/01/10 06:15:35;;;;;;;31.65;20.43;;;;;;;1.65;83.04;100031.31;1784212;79;21270;-75
2021/01/10 06:18:04;;;;;;;40.50;23.38;;;;;;;1.69;83.02;100046.34;1783888;80;21177;-71
2021/01/10 06:20:37;;;;;;;34.70;20.68;;;;;;;1.71;82.87;100048.31;1785109;80;21324;-73
2021/01/10 06:23:05;;;;;;;33.15;20.02;;;;;;;1.71;82.75;100046.48;1786301;80;21634;-72
2021/01/10 06:25:38;;;;;;;36.48;22.50;;;;;;;1.68;82.65;100058.77;1792770;80;21158;-72
2021/01/10 06:28:12;;;;;;;35.15;22.52;;;;;;;1.66;82.65;100050.69;1792944;80;21074;-73
2021/01/10 06:30:59;;;;;;;32.70;19.73;;;;;;;1.66;82.71;100055.50;1792825;80;21200;-72
2021/01/10 06:33:31;;;;;;;37.30;23.32;;;;;;;1.67;82.70;100057.15;1793347;78;21363;-71
2021/01/10 06:36:05;;;;;;;33.40;19.80;;;;;;;1.64;82.60;100061.97;1792227;80;21136;-71
2021/01/10 06:38:36;;;;;;;;;;;;;;;1.63;82.68;100070.42;1794780;80;21026;-72
2021/01/10 06:41:46;;;;;;;34.10;20.35;;;;;;;1.65;82.69;100072.90;1810371;78;20271;-74
2021/01/10 06:44:14;;;;;;;31.93;22.07;;;;;;;1.64;82.70;100074.72;1796548;78;21196;-73
2021/01/10 06:46:41;;;;;;;29.87;20.62;;;;;;;1.65;82.70;100076.88;1765767;80;21381;-74
2021/01/10 06:49:08;;;;;;;31.97;22.48;;;;;;;1.66;82.62;100082.00;1716598;80;21614;-73
2021/01/10 06:51:37;;;;;;;30.02;20.17;;;;;;;1.67;82.53;100091.61;1792307;78;21572;-72
2021/01/10 06:54:06;;;;;;;30.35;18.95;;;;;;;1.68;82.39;100085.78;1792095;80;21111;-74
2021/01/10 06:56:34;;;;;;;36.95;22.87;;;;;;;1.69;82.35;100082.13;1792276;80;21185;-72
2021/01/10 06:59:09;;;;;;;27.85;17.07;;;;;;;1.69;82.42;100085.61;1776645;80;21432;-73
2021/01/10 07:01:52;;;;;;;35.08;21.37;;;;;;;1.70;82.29;100106.31;1794140;78;21169;-72
2021/01/10 07:04:23;;;;;;;37.07;23.27;;;;;;;1.70;82.29;100095.21;1761152;81;21590;-72
2021/01/10 07:06:54;;;;;;;37.40;22.15;;;;;;;1.67;82.40;100098.73;1772607;79;21148;-72
2021/01/10 07:09:22;;;;;;;37.35;21.10;;;;;;;1.67;82.50;100103.55;1792121;80;21118;-72
2021/01/10 07:11:50;;;;;;;27.25;18.17;;;;;;;1.69;82.51;100106.81;1792102;80;21357;-71
2021/01/10 07:14:24;;;;;;;41.48;23.40;;;;;;;1.68;82.41;100106.48;1792291;78;21117;-72
2021/01/10 07:17:10;;;;;;;36.25;21.77;;;;;;;1.68;82.46;100108.31;1792285;80;21150;-70
2021/01/10 07:19:41;;;;;;;38.90;23.50;;;;;;;1.67;82.45;100106.20;1792025;79;21042;-71
2021/01/10 07:22:30;;;;;;;30.77;19.57;;;;;;;1.65;82.65;100113.49;1801326;78;21145;-72
2021/01/10 07:24:57;;;;;;;34.23;21.37;;;;;;;1.65;82.80;100108.69;1798756;78;21619;-72
2021/01/10 07:27:33;;;;;;;29.82;18.42;;;;;;;1.68;82.99;100114.94;1788551;80;21184;-74
2021/01/10 07:30:23;;;;;;;43.00;25.37;;;;;;;1.71;83.04;100119.91;1773113;80;22072;-73
2021/01/10 07:32:52;;;;;;;32.28;20.75;;;;;;;1.73;83.08;100120.02;1758488;81;22267;-72
2021/01/10 07:35:19;;;;;;;36.23;23.38;;;;;;;1.79;83.02;100130.91;1749805;81;21205;-71
2021/01/10 07:37:48;;;;;;;37.90;21.48;;;;;;;1.83;82.91;100129.03;1725102;83;21201;-72
2021/01/10 07:40:23;;;;;;;34.92;22.62;;;;;;;1.87;83.00;100125.00;1725041;81;21120;-72
2021/01/10 07:43:01;;;;;;;25.43;15.30;;;;;;;1.90;82.80;100130.47;1731118;81;21517;-71
2021/01/10 07:45:39;;;;;;;36.23;21.62;;;;;;;1.90;82.73;100139.74;1724961;83;21202;-70
2021/01/10 07:48:06;;;;;;;35.78;21.75;;;;;;;1.91;82.62;100128.14;1726940;81;21131;-76
2021/01/10 07:50:34;;;;;;;35.40;23.07;;;;;;;1.88;82.62;100120.03;1741864;81;21279;-74
2021/01/10 07:53:03;;;;;;;31.12;20.85;;;;;;;1.91;82.82;100124.16;1735302;81;21173;-75
2021/01/10 07:55:31;;;;;;;32.05;20.80;;;;;;;1.93;82.63;100131.41;1750414;81;21167;-74
2021/01/10 07:58:15;;;;;;;27.42;16.80;;;;;;;1.90;82.22;100146.38;1755132;81;21144;-74
2021/01/10 08:00:50;;;;;;;31.10;19.87;;;;;;;1.86;82.28;100151.23;1755330;81;21625;-73
2021/01/10 08:03:24;;;;;;;35.13;21.25;;;;;;;1.82;82.43;100135.87;1752875;81;21398;-73
2021/01/10 08:06:06;;;;;;;36.35;22.52;;;;;;;1.80;82.64;100140.02;1756076;81;21052;-72
2021/01/10 08:08:46;;;;;;;33.38;20.97;;;;;;;1.75;82.92;100143.22;1756593;81;21001;-74
2021/01/10 08:11:31;;;;;;;36.08;21.90;;;;;;;1.73;83.13;100145.21;1752680;80;21098;-73
2021/01/10 08:14:03;;;;;;;31.65;21.05;;;;;;;1.73;83.32;100137.76;1745493;81;21157;-73
2021/01/10 08:16:32;;;;;;;29.70;19.98;;;;;;;1.73;83.55;100139.91;1704568;83;21383;-76
2021/01/10 08:19:04;;;;;;;30.57;18.35;;;;;;;1.77;83.70;100149.67;1753831;81;21599;-69
2021/01/10 08:21:32;;;;;;;27.22;19.27;;;;;;;1.77;83.66;100147.02;1754101;81;21548;-72
2021/01/10 08:24:03;;;;;;;36.03;21.87;;;;;;;1.75;83.74;100149.84;1748931;81;21233;-70
2021/01/10 08:26:41;;;;;;;34.60;20.52;;;;;;;1.76;83.77;100146.70;1728992;82;21229;-69
2021/01/10 08:29:09;;;;;;;36.93;23.00;;;;;;;1.77;83.71;100148.84;1747368;81;21379;-71
2021/01/10 08:31:37;;;;;;;32.42;19.57;;;;;;;1.74;83.76;100158.80;1776552;80;21007;-70
2021/01/10 08:34:08;;;;;;;29.72;18.67;;;;;;;1.73;83.89;100151.84;1771092;80;21114;-71
2021/01/10 08:36:36;;;;;;;35.98;21.45;;;;;;;1.74;83.97;100152.17;1752947;81;21540;-72
2021/01/10 08:39:09;;;;;;;35.73;24.12;;;;;;;1.77;84.05;100152.33;1753045;81;21569;-69
2021/01/10 08:41:43;;;;;;;31.73;21.10;;;;;;;1.81;84.09;100155.42;1756108;80;21006;-72
2021/01/10 08:44:19;;;;;;;30.23;18.75;;;;;;;1.87;84.20;100153.38;1782896;80;21038;-72
2021/01/10 08:46:49;;;;;;;38.35;21.62;;;;;;;1.92;84.03;100165.59;1755797;80;21126;-71
2021/01/10 08:49:18;;;;;;;30.12;18.48;;;;;;;1.93;83.67;100153.95;1758718;80;21010;-71
2021/01/10 08:51:49;;;;;;;37.53;21.70;;;;;;;1.93;83.69;100157.94;1755239;80;21200;-70
2021/01/10 08:54:27;;;;;;;30.43;20.48;;;;;;;1.90;83.62;100151.68;1773822;80;21381;-67
2021/01/10 08:56:57;;;;;;;28.47;21.27;;;;;;;1.90;83.64;100154.33;1785655;79;21630;-68
2021/01/10 08:59:40;;;;;;;31.05;20.68;;;;;;;1.88;83.60;100155.00;1785863;80;21114;-69
2021/01/10 09:02:09;;;;;;;32.58;18.45;;;;;;;1.88;83.70;100153.17;1786056;80;21188;-68
2021/01/10 09:04:43;;;;;;;30.15;20.20;;;;;;;1.90;83.77;100149.03;1784719;80;21011;-71
2021/01/10 09:07:19;;;;;;;28.92;19.73;;;;;;;1.93;83.33;100159.26;1775240;80;22329;-70
2021/01/10 09:10:03;;;;;;;32.20;19.45;;;;;;;1.95;82.99;100154.61;1774034;80;21169;-68
2021/01/10 09:12:46;;;;;;;35.23;18.80;;;;;;;1.95;82.66;100151.95;1766958;80;21598;-74
2021/01/10 09:15:33;;;;;;;24.23;16.25;;;;;;;1.95;82.38;100142.67;1754600;81;21187;-73
2021/01/10 09:18:10;;;;;;;34.48;21.48;;;;;;;1.97;82.47;100133.52;1754455;81;21188;-69
2021/01/10 09:20:43;;;;;;;24.85;18.10;;;;;;;1.97;82.22;100156.06;1754611;81;21372;-81
2021/01/10 09:23:10;;;;;;;26.45;17.32;;;;;;;1.95;81.78;100135.55;1763158;80;21157;-69
2021/01/10 09:25:40;;;;;;;32.17;18.62;;;;;;;1.94;81.39;100141.02;1744361;81;21155;-70
2021/01/10 09:28:13;;;;;;;26.77;15.90;;;;;;;1.92;81.02;100151.80;1752441;81;21187;-68
2021/01/10 09:30:43;;;;;;;;;;;;;;;1.91;81.18;100140.08;1754481;81;21184;-71
2021/01/10 09:33:11;;;;;;;25.57;16.05;;;;;;;1.88;80.88;100137.27;1739391;82;21403;-70
2021/01/10 09:35:46;;;;;;;30.68;18.90;;;;;;;1.85;80.77;100134.99;1713526;82;21229;-70
2021/01/10 09:38:19;;;;;;;22.95;15.18;;;;;;;1.81;80.72;100145.64;1711769;82;21622;-69
2021/01/10 09:41:14;;;;;;;33.75;20.90;;;;;;;1.83;81.00;100136.98;1742588;81;21136;-71
2021/01/10 09:43:44;;;;;;;34.20;16.85;;;;;;;1.86;81.24;100133.99;1729307;81;21191;-71
2021/01/10 09:46:30;;;;;;;25.45;16.57;;;;;;;1.92;81.28;100141.73;1710833;82;22287;-72
2021/01/10 09:49:08;;;;;;;21.73;15.13;;;;;;;1.95;81.33;100136.05;1698694;82;21157;-68
2021/01/10 09:51:42;;;;;;;26.10;17.55;;;;;;;1.95;80.89;100141.34;1729890;83;21120;-69
2021/01/10 09:54:17;;;;;;;27.10;18.60;;;;;;;1.94;80.84;100145.83;1699366;84;21185;-68
2021/01/10 09:56:56;;;;;;;26.68;17.92;;;;;;;1.95;80.92;100142.17;1731734;81;21136;-70
2021/01/10 09:59:56;;;;;;;24.43;16.60;;;;;;;1.95;81.08;100134.22;1719393;82;22130;-69
2021/01/10 10:02:34;;;;;;;27.82;17.90;;;;;;;1.96;80.48;100149.63;1777205;80;21582;-72
2021/01/10 10:05:20;;;;;;;24.20;14.73;;;;;;;1.96;80.80;100133.22;1772306;80;21125;-70
2021/01/10 10:08:00;;;;;;;24.15;16.15;;;;;;;2.00;80.90;100142.95;1772576;80;21141;-69
2021/01/10 10:10:31;;;;;;;25.12;15.40;;;;;;;2.01;80.59;100141.95;1725322;83;21610;-67
2021/01/10 10:15:53;;;;;;;26.30;18.10;;;;;;;1.97;79.21;100135.34;1831979;76;27846;-78
2021/01/10 10:18:25;;;;;;;25.62;15.48;;;;;;;1.93;79.46;100141.52;1818882;78;26660;-69
2021/01/10 10:20:52;;;;;;;27.58;18.25;;;;;;;1.93;79.20;100138.87;1816473;78;21193;-69
2021/01/10 10:23:20;;;;;;;26.40;15.48;;;;;;;1.94;79.10;100125.11;1817151;79;20980;-70
2021/01/10 10:25:50;;;;;;;21.73;15.65;;;;;;;1.93;79.07;100136.22;1814926;79;21564;-71
2021/01/10 10:28:18;;;;;;;25.62;17.67;;;;;;;1.97;79.31;100126.06;1816880;79;21650;-71
2021/01/10 10:30:46;;;;;;;24.43;14.90;;;;;;;2.02;79.33;100125.83;1807949;77;20968;-70
2021/01/10 10:33:16;;;;;;;22.25;15.08;;;;;;;2.09;79.18;100134.71;1789487;79;21183;-71
2021/01/10 10:35:44;;;;;;;24.15;14.87;;;;;;;2.13;78.81;100136.48;1784906;80;21534;-70
2021/01/10 10:38:12;;;;;;;22.20;13.38;;;;;;;2.16;78.47;100144.89;1788375;77;21117;-68
2021/01/10 10:40:40;;;;;;;27.58;16.97;;;;;;;2.16;78.12;100146.22;1791339;79;21106;-69
2021/01/10 10:43:07;;;;;;;23.07;13.43;;;;;;;2.13;77.36;100149.25;1799290;77;21155;-71
2021/01/10 10:45:35;;;;;;;22.87;14.43;;;;;;;2.13;77.70;100140.47;1817176;79;21363;-70
2021/01/10 10:48:05;;;;;;;19.55;13.25;;;;;;;2.12;77.93;100133.01;1803462;79;21118;-68
2021/01/10 10:50:33;;;;;;;24.35;15.40;;;;;;;2.17;77.91;100132.45;1785130;79;21114;-71
2021/01/10 10:53:03;;;;;;;24.20;16.17;;;;;;;2.19;77.41;100150.35;1795707;79;21145;-71
2021/01/10 10:55:30;;;;;;;24.18;14.73;;;;;;;2.19;77.15;100145.05;1782865;79;21566;-71
2021/01/10 10:57:58;;;;;;;21.00;13.95;;;;;;;2.18;76.87;100139.41;1755069;80;21940;-70
2021/01/10 11:00:26;;;;;;;23.15;12.65;;;;;;;2.16;76.71;100132.95;1768693;79;21165;-69
2021/01/10 11:02:54;;;;;;;18.67;12.40;;;;;;;2.14;76.35;100139.47;1759512;79;21161;-68
2021/01/10 11:05:22;;;;;;;17.77;11.40;;;;;;;2.11;76.13;100134.54;1756375;80;21135;-70
2021/01/10 11:07:52;;;;;;;18.62;11.40;;;;;;;2.10;76.29;100136.36;1754267;80;21067;-69
2021/01/10 11:10:20;;;;;;;19.07;12.25;;;;;;;2.11;76.32;100128.70;1755911;79;21200;-70
2021/01/10 11:12:48;;;;;;;17.70;10.88;;;;;;;2.14;76.11;100132.83;1773701;80;21183;-70
2021/01/10 11:15:16;;;;;;;18.73;10.05;;;;;;;2.14;75.82;100130.17;1782569;79;21145;-70
2021/01/10 11:17:43;;;;;;;15.95;11.65;;;;;;;2.13;75.83;100132.51;1779404;79;21145;-70
2021/01/10 11:20:13;;;;;;;15.58;10.35;;;;;;;2.10;75.34;100131.06;1761958;79;21125;-69
2021/01/10 11:22:42;;;;;;;21.00;10.55;;;;;;;2.10;75.22;100143.00;1769871;79;21356;-71
2021/01/10 11:25:11;;;;;;;17.50;11.28;;;;;;;2.13;75.20;100142.62;1750588;80;21173;-70
2021/01/10 11:27:41;;;;;;;13.78;9.50;;;;;;;2.14;75.37;100133.66;1766746;80;21165;-68
2021/01/10 11:30:10;;;;;;;15.95;10.03;;;;;;;2.14;74.96;100137.64;1784335;79;21580;-70
2021/01/10 11:32:38;;;;;;;16.50;10.50;;;;;;;2.12;74.96;100140.97;1783422;80;21166;-70
2021/01/10 11:35:07;;;;;;;16.52;10.48;;;;;;;2.13;75.35;100143.12;1782646;80;21434;-71
2021/01/10 11:37:35;;;;;;;17.27;11.10;;;;;;;2.13;75.16;100149.25;1782660;80;21161;-69
2021/01/10 11:40:05;;;;;;;13.60;9.28;;;;;;;2.15;75.21;100139.80;1783877;80;20983;-68
2021/01/10 11:42:35;;;;;;;14.80;10.25;;;;;;;2.17;75.40;100139.08;1783306;80;21034;-71
2021/01/10 11:45:06;;;;;;;15.70;9.53;;;;;;;2.22;75.48;100137.20;1783773;80;21639;-69
2021/01/10 11:47:35;;;;;;;13.68;7.78;;;;;;;2.24;75.39;100137.35;1782229;80;21208;-68